Spokane, WA

3:22 AM PDT on August 26, 2016 (GMT -0700)
Medical lake-902 | | Change Station
Active Advisory: Fire Weather Watch

Elev 2382 ft 47.59 °N, 117.63 °W | Updated 4 minutes ago

Overcast
Overcast
55.9 °F
Feels Like 55.9 °F
N
0.0
Wind Variable Wind from NW

Today
High -- | Low -- °F
--% Chance of Precip.
Yesterday
High -- | Low -- °F
Precip. -- in
Pressure 30.00 in
Visibility 10.0 miles
Clouds Overcast 10000 ft
Dew Point 41 °F
Humidity 58%
Rainfall 0.00 in
Snow Depth Not available.
6:01 AM 7:41 PM
Waning Crescent, 36% visible
METAR KSKA 260958Z AUTO 08008KT 10SM OVC100 17/04 A3003 RMK AO2 SLP157 T01720040
Pressure 30.00 in
Visibility 10.0 miles
Clouds Overcast 10000 ft
Dew Point 41 °F
Humidity 58%
Rainfall 0.00 in
Snow Depth Not available.
6:01 AM 7:41 PM
Waning Crescent, 36% visible
METAR KSKA 260958Z AUTO 08008KT 10SM OVC100 17/04 A3003 RMK AO2 SLP157 T01720040

10-Day Weather Forecast

Almanac

Astronomy

Aug. 26, 2016 Rise Set
Actual Time
Civil Twilight
Nautical Twilight
Astronomical Twilight
Moon
Length of Visible Light
Length of Day
Tomorrow will be .
, % of the Moon is Illuminated

Today's Extremes

State Highs State Lows

Community

WunderPhotos

Upload Photos

1,935,069 photos uploaded!

WunderBlog® & News

Nearby

Air Quality

  Air Quality AQ Index Pollutant
Not available.

Snow Depth

Station Depth Elevation

Earthquake Activity

City Distance Mag. Time & Date
Minimum magnitude displayed is 2.5.

Coastal Water Temperatures

Place Temperature

Stations

Nearby Weather Stations

Station Location Temp. Windchill Dew Point Humidity Wind Precip. Elev Updated Type
                   

Watches & Warnings

Fire Weather Watch
Issued: 2:21 PM PDT Aug. 25, 2016 – National Weather Service

... Fire Weather Watch in effect from Saturday afternoon through
Saturday evening for wind and low relative humidity for northern
and central Idaho Panhandle and East Washington Palouse and
Spokane area|...

The National Weather Service in Spokane has issued a Fire Weather
Watch for wind and low relative humidity... which is in effect
from Saturday afternoon through Saturday evening.

* Affected area: fire weather zone 101 northern and central
Idaho Panhandle (zone 101) and fire weather zone 674 East
Washington Palouse and Spokane area (zone 674).

* Winds: southwest 10 to 20 mph with gusts up to 30 mph.

* Relative humidities: 11 to 21 percent.

* Impacts: dry... warm... and breezy conditions will promote rapid
fire spread with any new or existing fires.

Precautionary/preparedness actions...

A Fire Weather Watch means that critical fire weather conditions
are forecast to occur. Listen for later forecasts and possible
red flag warnings.